DW6352 Weather Reports


Display with metric or nautical units.
time (UTC)temp
F
wind
direction
speed
MPH
gust
MPH
rain 1hr
in
rain 24hr
in
rain mn
in
humidity
%
barometer
mb
20240624121544 64 153 5.0 11.0 0.00 0.00 0.00 95 1009.9
20240624120041 63 145 2.0 9.0 0.00 0.00 0.00 96 1010.1
20240624114540 62 159 5.0 10.0 0.00 0.00 0.00 96 1009.8
20240624113041 62 145 4.0 8.0 0.00 0.00 0.00 96 1010.2
20240624111534 61 113 5.0 9.0 0.00 0.00 0.00 96 1010.0
20240624110048 61 113 3.0 8.0 0.00 0.00 0.00 96 1009.9
20240624104534 61 146 4.0 8.0 0.00 0.00 0.00 95 1009.9
20240624103029 61 131 2.0 6.0 0.00 0.00 0.00 95 1009.9
20240624101528 61 134 2.0 6.0 0.00 0.00 0.00 95 1010.0
20240624100047 61 130 2.0 7.0 0.00 0.00 0.00 95 1010.1
20240624094525 61 117 0.0 3.0 0.00 0.00 0.00 95 1010.4
20240624093030 62 138 1.0 5.0 0.00 0.00 0.00 95 1010.4
20240624091524 61 174 2.0 6.0 0.00 0.00 0.00 95 1010.4
20240624090035 61 140 1.0 4.0 0.00 0.00 0.00 94 1010.4
20240624084537 61 140 1.0 4.0 0.00 0.00 0.00 94 1010.6
20240624083020 61 144 1.0 3.0 0.00 0.00 0.00 94 1010.6
20240624081517 61 145 1.0 3.0 0.00 0.00 0.00 93 1010.7
20240624080022 61 145 1.0 4.0 0.00 0.00 0.00 94 1010.8
20240624074515 62 145 1.0 3.0 0.00 0.00 0.00 93 1010.8
20240624073015 62 144 1.0 4.0 0.00 0.00 0.00 93 1010.9
20240624071518 62 138 2.0 5.0 0.00 0.00 0.00 93 1010.9
20240624070013 62 130 2.0 5.0 0.00 0.00 0.00 93 1011.0
20240624064513 61 141 3.0 7.0 0.00 0.00 0.00 92 1011.1
20240624063015 61 150 2.0 4.0 0.00 0.00 0.00 91 1011.2
20240624061510 61 146 1.0 3.0 0.00 0.00 0.00 91 1011.2
20240624060022 61 89 0.0 3.0 0.00 0.00 0.00 90 1011.1
20240624054509 61 89 1.0 3.0 0.00 0.00 0.00 89 1011.0
20240624053009 62 89 1.0 3.0 0.00 0.00 0.00 87 1011.0
20240624051506 62 88 0.0 2.0 0.00 0.00 0.00 87 1011.0
20240624050007 62 88 0.0 1.0 0.00 0.00 0.00 87 1011.0
20240624044503 63 88 0.0 2.0 0.00 0.00 0.00 86 1010.9
20240624043002 64 88 0.0 1.0 0.00 0.00 0.00 86 1010.9
20240624041502 65 88 0.0 0.0 0.00 0.00 0.00 85 1010.8
20240624040001 65 88 0.0 1.0 0.00 0.00 0.00 84 1010.8
20240624034601 66 89 0.0 0.0 0.00 0.00 0.00 82 1010.7
20240624033110 67 88 1.0 2.0 0.00 0.00 0.00 81 1010.6
20240624031602 68 88 0.0 0.0 0.00 0.00 0.00 78 1010.6
20240624030100 69 318 1.0 2.0 0.00 0.00 0.00 77 1010.5
20240624024559 71 318 0.0 1.0 0.00 0.00 0.00 75 1010.3
20240624023100 73 318 0.0 0.0 0.00 0.00 0.00 72 1010.1
20240624021634 74 318 0.0 1.0 0.00 0.00 0.00 64 1010.0
20240624020102 77 318 0.0 2.0 0.00 0.00 0.00 60 1010.0
20240624014609 78 318 1.0 3.0 0.00 0.00 0.00 55 1009.9
20240624013057 79 306 2.0 4.0 0.00 0.00 0.00 53 1009.8
20240624011611 81 306 2.0 5.0 0.00 0.00 0.00 51 1009.9
20240624010103 82 360 4.0 8.0 0.00 0.00 0.00 49 1009.9
20240624004556 82 316 3.0 6.0 0.00 0.01 0.00 49 1009.9
20240624003105 82 323 5.0 9.0 0.00 0.01 0.00 49 1009.9
20240624001554 82 324 4.0 8.0 0.00 0.01 0.00 49 1009.8
20240624000100 82 342 5.0 12.0 0.00 0.01 0.00 48 1009.7
20240623234556 82 294 8.0 15.0 0.00 0.01 0.00 47 1009.6
20240623233102 82 293 8.0 15.0 0.00 0.01 0.00 48 1009.6
20240623231556 83 312 8.0 14.0 0.00 0.01 0.00 47 1009.8
20240623230047 83 329 4.0 13.0 0.00 0.01 0.00 50 1009.7
20240623224546 83 306 7.0 14.0 0.00 0.01 0.00 49 1009.8
20240623223045 82 325 9.0 16.0 0.00 0.01 0.00 50 1009.7
20240623221545 81 311 3.0 13.0 0.00 0.01 0.00 53 1009.6
20240623220044 82 315 8.0 13.0 0.00 0.01 0.00 52 1009.6
20240623214543 81 309 4.0 10.0 0.00 0.01 0.00 57 1009.4
20240623213042 80 11 8.0 14.0 0.00 0.01 0.00 58 1009.5
20240623211604 79 13 2.0 9.0 0.00 0.01 0.00 61 1009.5
20240623210041 79 28 3.0 9.0 0.00 0.01 0.00 59 1009.3
20240623204543 80 344 6.0 9.0 0.00 0.10 0.00 57 1009.5
20240623203041 82 321 7.0 16.0 0.00 0.10 0.00 52 1009.3
20240623201547 82 340 7.0 17.0 0.00 0.10 0.00 53 1009.3
20240623200035 82 275 7.0 19.0 0.00 0.10 0.00 53 1009.3
20240623194533 82 268 8.0 16.0 0.00 0.12 0.00 55 1009.3
20240623193037 81 274 8.0 13.0 0.00 0.12 0.00 57 1009.4
20240623191527 81 296 8.0 15.0 0.00 0.12 0.00 58 1009.6
20240623190024 80 306 7.0 14.0 0.00 0.12 0.00 57 1009.6
20240623184525 80 261 7.0 16.0 0.00 0.12 0.00 59 1009.8
20240623183019 79 294 4.0 11.0 0.00 0.12 0.00 62 1009.9
20240623181515 78 271 3.0 11.0 0.00 0.12 0.00 63 1010.1
20240623180013 78 308 7.0 13.0 0.00 0.12 0.00 66 1010.3
20240623174529 77 266 6.0 12.0 0.00 0.12 0.00 68 1010.3
20240623173006 76 252 7.0 12.0 0.00 0.12 0.00 72 1010.4
20240623171502 76 309 5.0 10.0 0.00 0.12 0.00 74 1010.4
20240623170059 75 249 6.0 14.0 0.00 0.12 0.00 76 1010.5
20240623164559 74 272 3.0 12.0 0.00 0.12 0.00 78 1010.5
20240623163053 72 307 6.0 11.0 0.00 0.12 0.00 80 1010.5
20240623161549 71 263 8.0 12.0 0.00 0.12 0.00 83 1010.6
20240623160046 70 240 6.0 12.0 0.00 0.12 0.00 85 1010.6
20240623154552 70 254 8.0 14.0 0.00 0.12 0.00 86 1010.6
20240623153041 69 275 5.0 13.0 0.00 0.12 0.00 86 1010.8
20240623151541 69 255 4.0 10.0 0.00 0.12 0.00 86 1010.6
20240623150037 68 255 7.0 11.0 0.00 0.12 0.00 87 1010.6
20240623144541 67 242 6.0 10.0 0.00 0.12 0.00 88 1010.6
20240623143030 65 232 5.0 9.0 0.00 0.12 0.00 90 1010.7
20240623141528 64 180 4.0 9.0 0.00 0.12 0.00 91 1010.8
20240623140025 62 200 6.0 8.0 0.00 0.12 0.00 91 1011.0
20240623134519 61 211 3.0 6.0 0.00 0.12 0.00 91 1011.1
20240623133033 60 251 2.0 6.0 0.00 0.12 0.00 92 1011.1
20240623131541 59 169 5.0 9.0 0.00 0.12 0.00 94 1011.0
20240623130008 57 180 3.0 7.0 0.00 0.12 0.00 94 1011.0
20240623124505 56 215 4.0 6.0 0.00 0.12 0.00 95 1011.0
20240623123001 55 192 1.0 4.0 0.00 0.12 0.00 96 1011.0